sensor_id;sensor_type;location;lat;lon;timestamp;pressure;altitude;pressure_sealevel;temperature;humidity
18819;BME280;9537;45.594;9.294;2022-07-01T00:00:24;99299.59;;;28.01;33.07
18819;BME280;9537;45.594;9.294;2022-07-01T00:01:26;99303.41;;;28.00;33.34
18819;BME280;9537;45.594;9.294;2022-07-01T00:02:27;99300.19;;;27.98;34.13
18819;BME280;9537;45.594;9.294;2022-07-01T00:03:30;99301.28;;;27.97;34.32
18819;BME280;9537;45.594;9.294;2022-07-01T00:04:34;99305.91;;;27.96;34.52
18819;BME280;9537;45.594;9.294;2022-07-01T00:05:35;99296.66;;;27.97;34.82
18819;BME280;9537;45.594;9.294;2022-07-01T00:06:37;99301.81;;;27.99;35.23
18819;BME280;9537;45.594;9.294;2022-07-01T00:07:38;99302.09;;;27.97;35.53
18819;BME280;9537;45.594;9.294;2022-07-01T00:08:40;99297.47;;;27.98;35.83
18819;BME280;9537;45.594;9.294;2022-07-01T00:09:41;99298.66;;;27.92;36.04
18819;BME280;9537;45.594;9.294;2022-07-01T00:10:43;99300.78;;;27.95;36.66
18819;BME280;9537;45.594;9.294;2022-07-01T00:11:44;99299.19;;;27.94;37.19
18819;BME280;9537;45.594;9.294;2022-07-01T00:12:46;99303.81;;;27.93;37.51
18819;BME280;9537;45.594;9.294;2022-07-01T00:13:47;99295.94;;;27.92;37.93
18819;BME280;9537;45.594;9.294;2022-07-01T00:14:49;99290.72;;;27.95;37.95
18819;BME280;9537;45.594;9.294;2022-07-01T00:15:50;99293.44;;;27.95;39.31
18819;BME280;9537;45.594;9.294;2022-07-01T00:16:52;99288.53;;;27.97;39.26
18819;BME280;9537;45.594;9.294;2022-07-01T00:17:53;99284.50;;;27.95;39.30
18819;BME280;9537;45.594;9.294;2022-07-01T00:18:56;99283.97;;;27.93;39.71
18819;BME280;9537;45.594;9.294;2022-07-01T00:19:57;99280.78;;;27.91;39.67
18819;BME280;9537;45.594;9.294;2022-07-01T00:20:59;99287.81;;;27.92;40.32
18819;BME280;9537;45.594;9.294;2022-07-01T00:22:01;99283.56;;;27.85;40.61
18819;BME280;9537;45.594;9.294;2022-07-01T00:23:03;99290.91;;;27.85;40.82
18819;BME280;9537;45.594;9.294;2022-07-01T00:24:05;99293.63;;;27.85;40.92
18819;BME280;9537;45.594;9.294;2022-07-01T00:25:08;99285.41;;;27.90;41.21
18819;BME280;9537;45.594;9.294;2022-07-01T00:26:09;99290.50;;;27.92;41.44
18819;BME280;9537;45.594;9.294;2022-07-01T00:27:12;99295.13;;;27.91;41.50
18819;BME280;9537;45.594;9.294;2022-07-01T00:28:13;99286.69;;;27.93;41.15
18819;BME280;9537;45.594;9.294;2022-07-01T00:29:15;99281.84;;;27.90;41.68
18819;BME280;9537;45.594;9.294;2022-07-01T00:30:16;99279.13;;;27.90;41.75
18819;BME280;9537;45.594;9.294;2022-07-01T00:31:18;99282.69;;;27.90;41.80
18819;BME280;9537;45.594;9.294;2022-07-01T00:32:19;99292.22;;;27.88;42.12
18819;BME280;9537;45.594;9.294;2022-07-01T00:33:29;99280.53;;;27.87;42.10
18819;BME280;9537;45.594;9.294;2022-07-01T00:34:31;99288.41;;;27.89;42.09
18819;BME280;9537;45.594;9.294;2022-07-01T00:35:33;99285.69;;;27.89;42.08
18819;BME280;9537;45.594;9.294;2022-07-01T00:36:34;99283.56;;;27.85;42.09
18819;BME280;9537;45.594;9.294;2022-07-01T00:37:38;99278.13;;;27.85;42.16
18819;BME280;9537;45.594;9.294;2022-07-01T00:38:39;99276.75;;;27.88;42.03
18819;BME280;9537;45.594;9.294;2022-07-01T00:39:41;99275.34;;;27.91;42.09
18819;BME280;9537;45.594;9.294;2022-07-01T00:40:42;99283.84;;;27.84;42.22
18819;BME280;9537;45.594;9.294;2022-07-01T00:41:44;99275.22;;;27.82;42.44
18819;BME280;9537;45.594;9.294;2022-07-01T00:42:45;99276.59;;;27.79;42.54
18819;BME280;9537;45.594;9.294;2022-07-01T00:43:47;99275.72;;;27.65;43.00
18819;BME280;9537;45.594;9.294;2022-07-01T00:44:48;99278.94;;;27.67;42.97
18819;BME280;9537;45.594;9.294;2022-07-01T00:45:51;99278.94;;;27.67;43.00
18819;BME280;9537;45.594;9.294;2022-07-01T00:46:52;99280.56;;;27.68;43.29
18819;BME280;9537;45.594;9.294;2022-07-01T00:47:55;99285.19;;;27.68;43.22
18819;BME280;9537;45.594;9.294;2022-07-01T00:48:58;99274.09;;;27.64;43.48
18819;BME280;9537;45.594;9.294;2022-07-01T00:50:03;99276.53;;;27.66;43.38
18819;BME280;9537;45.594;9.294;2022-07-01T00:51:06;99269.19;;;27.66;43.55
18819;BME280;9537;45.594;9.294;2022-07-01T00:52:09;99275.19;;;27.63;43.47
18819;BME280;9537;45.594;9.294;2022-07-01T00:53:12;99277.09;;;27.62;43.76
18819;BME280;9537;45.594;9.294;2022-07-01T00:54:13;99268.66;;;27.64;43.67
18819;BME280;9537;45.594;9.294;2022-07-01T00:55:16;99268.66;;;27.64;43.64
18819;BME280;9537;45.594;9.294;2022-07-01T00:56:18;99264.34;;;27.63;43.69
18819;BME280;9537;45.594;9.294;2022-07-01T00:57:20;99264.66;;;27.61;43.77
18819;BME280;9537;45.594;9.294;2022-07-01T00:58:21;99263.34;;;27.59;44.04
18819;BME280;9537;45.594;9.294;2022-07-01T00:59:24;99260.97;;;27.52;43.95
18819;BME280;9537;45.594;9.294;2022-07-01T01:00:25;99271.03;;;27.52;44.03
18819;BME280;9537;45.594;9.294;2022-07-01T01:01:28;99259.97;;;27.48;44.34
18819;BME280;9537;45.594;9.294;2022-07-01T01:02:29;99257.53;;;27.47;44.47
18819;BME280;9537;45.594;9.294;2022-07-01T01:03:31;99268.69;;;27.45;44.45
18819;BME280;9537;45.594;9.294;2022-07-01T01:04:32;99259.22;;;27.43;44.34
18819;BME280;9537;45.594;9.294;2022-07-01T01:05:35;99262.53;;;27.39;44.74
18819;BME280;9537;45.594;9.294;2022-07-01T01:06:36;99259.88;;;27.34;45.01
18819;BME280;9537;45.594;9.294;2022-07-01T01:07:38;99254.78;;;27.33;45.01
18819;BME280;9537;45.594;9.294;2022-07-01T01:08:39;99258.03;;;27.30;45.02
18819;BME280;9537;45.594;9.294;2022-07-01T01:09:41;99262.97;;;27.28;45.13
18819;BME280;9537;45.594;9.294;2022-07-01T01:10:43;99262.44;;;27.26;45.00
18819;BME280;9537;45.594;9.294;2022-07-01T01:11:45;99254.59;;;27.24;44.76
18819;BME280;9537;45.594;9.294;2022-07-01T01:12:46;99259.81;;;27.21;44.77
18819;BME280;9537;45.594;9.294;2022-07-01T01:13:48;99266.63;;;27.18;44.98
18819;BME280;9537;45.594;9.294;2022-07-01T01:14:50;99263.97;;;27.13;45.46
18819;BME280;9537;45.594;9.294;2022-07-01T01:15:52;99258.53;;;27.13;45.14
18819;BME280;9537;45.594;9.294;2022-07-01T01:16:53;99269.38;;;27.13;45.48
18819;BME280;9537;45.594;9.294;2022-07-01T01:17:56;99268.28;;;27.14;45.70
18819;BME280;9537;45.594;9.294;2022-07-01T01:18:57;99269.09;;;27.14;45.70
18819;BME280;9537;45.594;9.294;2022-07-01T01:19:59;99268.28;;;27.14;45.64
18819;BME280;9537;45.594;9.294;2022-07-01T01:21:01;99263.13;;;27.12;45.57
18819;BME280;9537;45.594;9.294;2022-07-01T01:22:03;99260.16;;;27.14;45.64
18819;BME280;9537;45.594;9.294;2022-07-01T01:23:04;99269.38;;;27.13;45.70
18819;BME280;9537;45.594;9.294;2022-07-01T01:24:07;99261.25;;;27.13;45.76
18819;BME280;9537;45.594;9.294;2022-07-01T01:25:08;99267.22;;;27.10;45.86
18819;BME280;9537;45.594;9.294;2022-07-01T01:26:18;99259.09;;;27.10;45.88
18819;BME280;9537;45.594;9.294;2022-07-01T01:27:19;99259.94;;;27.10;46.11
18819;BME280;9537;45.594;9.294;2022-07-01T01:28:21;99259.94;;;27.10;46.26
18819;BME280;9537;45.594;9.294;2022-07-01T01:29:22;99268.56;;;27.12;46.06
18819;BME280;9537;45.594;9.294;2022-07-01T01:30:24;99258.03;;;27.11;46.00
18819;BME280;9537;45.594;9.294;2022-07-01T01:31:29;99262.34;;;27.12;45.96
18819;BME280;9537;45.594;9.294;2022-07-01T01:32:31;99264.25;;;27.11;46.25
18819;BME280;9537;45.594;9.294;2022-07-01T01:33:32;99254.78;;;27.09;46.59
18819;BME280;9537;45.594;9.294;2022-07-01T01:34:35;99255.59;;;27.09;47.02
18819;BME280;9537;45.594;9.294;2022-07-01T01:35:37;99256.91;;;27.12;46.96
18819;BME280;9537;45.594;9.294;2022-07-01T01:36:41;99257.81;;;27.07;46.82
18819;BME280;9537;45.594;9.294;2022-07-01T01:37:42;99254.84;;;27.04;47.18
18819;BME280;9537;45.594;9.294;2022-07-01T01:38:44;99248.41;;;27.00;47.50
18819;BME280;9537;45.594;9.294;2022-07-01T01:39:45;99253.31;;;26.98;47.30
18819;BME280;9537;45.594;9.294;2022-07-01T01:40:47;99253.31;;;26.98;47.06
18819;BME280;9537;45.594;9.294;2022-07-01T01:41:49;99253.38;;;26.92;47.10
18819;BME280;9537;45.594;9.294;2022-07-01T01:42:51;99247.47;;;26.90;47.17
18819;BME280;9537;45.594;9.294;2022-07-01T01:43:52;99249.06;;;26.91;47.10
18819;BME280;9537;45.594;9.294;2022-07-01T01:44:54;99250.91;;;26.96;46.85
18819;BME280;9537;45.594;9.294;2022-07-01T01:45:55;99243.56;;;26.96;46.53
18819;BME280;9537;45.594;9.294;2022-07-01T01:47:00;99248.41;;;27.00;46.55
18819;BME280;9537;45.594;9.294;2022-07-01T01:48:01;99240.81;;;27.02;46.50
18819;BME280;9537;45.594;9.294;2022-07-01T01:49:06;99240.28;;;27.00;46.56
18819;BME280;9537;45.594;9.294;2022-07-01T01:50:08;99227.53;;;27.00;46.67
18819;BME280;9537;45.594;9.294;2022-07-01T01:51:11;99226.72;;;27.00;46.55
18819;BME280;9537;45.594;9.294;2022-07-01T01:52:13;99223.81;;;26.96;46.88
18819;BME280;9537;45.594;9.294;2022-07-01T01:53:15;99214.84;;;26.95;46.80
18819;BME280;9537;45.594;9.294;2022-07-01T01:54:16;99217.00;;;26.99;46.78
18819;BME280;9537;45.594;9.294;2022-07-01T01:55:18;99214.28;;;26.99;46.52
18819;BME280;9537;45.594;9.294;2022-07-01T01:56:19;99223.44;;;27.03;45.99
18819;BME280;9537;45.594;9.294;2022-07-01T01:57:21;99214.50;;;27.02;46.44
18819;BME280;9537;45.594;9.294;2022-07-01T01:58:22;99214.78;;;27.01;46.67
18819;BME280;9537;45.594;9.294;2022-07-01T01:59:24;99220.00;;;26.97;47.07
18819;BME280;9537;45.594;9.294;2022-07-01T02:00:25;99220.25;;;26.95;46.81
18819;BME280;9537;45.594;9.294;2022-07-01T02:01:27;99212.66;;;26.98;46.93
18819;BME280;9537;45.594;9.294;2022-07-01T02:02:28;99211.06;;;26.96;47.06
18819;BME280;9537;45.594;9.294;2022-07-01T02:03:30;99222.63;;;27.02;46.53
18819;BME280;9537;45.594;9.294;2022-07-01T02:04:31;99216.41;;;27.02;46.81
18819;BME280;9537;45.594;9.294;2022-07-01T02:05:33;99213.97;;;27.00;46.76
18819;BME280;9537;45.594;9.294;2022-07-01T02:06:36;99214.28;;;26.99;46.94
18819;BME280;9537;45.594;9.294;2022-07-01T02:07:42;99212.22;;;26.90;46.67
18819;BME280;9537;45.594;9.294;2022-07-01T02:08:44;99213.31;;;26.89;46.90
18819;BME280;9537;45.594;9.294;2022-07-01T02:09:45;99212.81;;;26.87;47.31
18819;BME280;9537;45.594;9.294;2022-07-01T02:10:46;99208.47;;;26.86;47.26
18819;BME280;9537;45.594;9.294;2022-07-01T02:11:48;99214.19;;;26.85;47.32
18819;BME280;9537;45.594;9.294;2022-07-01T02:12:49;99209.38;;;26.82;47.67
18819;BME280;9537;45.594;9.294;2022-07-01T02:13:51;99214.78;;;26.82;47.69
18819;BME280;9537;45.594;9.294;2022-07-01T02:14:52;99214.47;;;26.83;47.50
18819;BME280;9537;45.594;9.294;2022-07-01T02:15:54;99203.63;;;26.83;47.39
18819;BME280;9537;45.594;9.294;2022-07-01T02:16:57;99207.16;;;26.84;47.09
18819;BME280;9537;45.594;9.294;2022-07-01T02:17:58;99215.28;;;26.84;47.28
18819;BME280;9537;45.594;9.294;2022-07-01T02:18:59;99218.50;;;26.86;46.88
18819;BME280;9537;45.594;9.294;2022-07-01T02:20:00;99222.59;;;26.83;46.61
18819;BME280;9537;45.594;9.294;2022-07-01T02:21:03;99225.31;;;26.83;46.44
18819;BME280;9537;45.594;9.294;2022-07-01T02:22:04;99217.19;;;26.83;46.40
18819;BME280;9537;45.594;9.294;2022-07-01T02:23:07;99209.38;;;26.82;46.43
18819;BME280;9537;45.594;9.294;2022-07-01T02:24:08;99218.28;;;26.82;46.52
18819;BME280;9537;45.594;9.294;2022-07-01T02:25:10;99213.94;;;26.81;46.34
18819;BME280;9537;45.594;9.294;2022-07-01T02:26:11;99217.19;;;26.83;46.36
18819;BME280;9537;45.594;9.294;2022-07-01T02:27:13;99219.91;;;26.83;46.26
18819;BME280;9537;45.594;9.294;2022-07-01T02:28:14;99217.72;;;26.85;46.17
18819;BME280;9537;45.594;9.294;2022-07-01T02:29:17;99223.13;;;26.85;46.31
18819;BME280;9537;45.594;9.294;2022-07-01T02:30:18;99219.63;;;26.85;46.50
18819;BME280;9537;45.594;9.294;2022-07-01T02:31:19;99219.03;;;26.88;46.49
18819;BME280;9537;45.594;9.294;2022-07-01T02:32:21;99219.84;;;26.88;46.18
18819;BME280;9537;45.594;9.294;2022-07-01T02:33:23;99212.81;;;26.87;46.62
18819;BME280;9537;45.594;9.294;2022-07-01T02:34:24;99220.41;;;26.85;46.81
18819;BME280;9537;45.594;9.294;2022-07-01T02:35:26;99219.63;;;26.85;46.75
18819;BME280;9537;45.594;9.294;2022-07-01T02:36:27;99219.31;;;26.86;46.87
18819;BME280;9537;45.594;9.294;2022-07-01T02:37:29;99211.97;;;26.87;47.31
18819;BME280;9537;45.594;9.294;2022-07-01T02:38:31;99211.19;;;26.86;47.31
18819;BME280;9537;45.594;9.294;2022-07-01T02:39:33;99209.56;;;26.85;47.35
18819;BME280;9537;45.594;9.294;2022-07-01T02:40:34;99210.38;;;26.86;46.90
18819;BME280;9537;45.594;9.294;2022-07-01T02:41:38;99207.41;;;26.87;46.99
18819;BME280;9537;45.594;9.294;2022-07-01T02:42:54;99200.66;;;26.85;46.98
18819;BME280;9537;45.594;9.294;2022-07-01T02:43:56;99194.97;;;26.81;47.19
18819;BME280;9537;45.594;9.294;2022-07-01T02:44:57;99211.25;;;26.81;47.22
18819;BME280;9537;45.594;9.294;2022-07-01T02:45:59;99208.03;;;26.79;46.93
18819;BME280;9537;45.594;9.294;2022-07-01T02:47:00;99199.31;;;26.82;47.15
18819;BME280;9537;45.594;9.294;2022-07-01T02:48:02;99204.53;;;26.79;46.93
18819;BME280;9537;45.594;9.294;2022-07-01T02:49:03;99200.50;;;26.76;47.05
18819;BME280;9537;45.594;9.294;2022-07-01T02:50:06;99197.19;;;26.79;47.02
18819;BME280;9537;45.594;9.294;2022-07-01T02:51:07;99201.50;;;26.80;47.11
18819;BME280;9537;45.594;9.294;2022-07-01T02:52:09;99193.44;;;26.75;47.17
18819;BME280;9537;45.594;9.294;2022-07-01T02:53:10;99199.38;;;26.77;46.91
18819;BME280;9537;45.594;9.294;2022-07-01T02:54:14;99199.91;;;26.79;47.27
18819;BME280;9537;45.594;9.294;2022-07-01T02:55:15;99204.81;;;26.77;47.34
18819;BME280;9537;45.594;9.294;2022-07-01T02:56:17;99201.06;;;26.73;46.93
18819;BME280;9537;45.594;9.294;2022-07-01T02:57:18;99206.50;;;26.73;47.29
18819;BME280;9537;45.594;9.294;2022-07-01T02:58:20;99199.75;;;26.70;47.37
18819;BME280;9537;45.594;9.294;2022-07-01T02:59:21;99201.41;;;26.66;47.57
18819;BME280;9537;45.594;9.294;2022-07-01T03:00:23;99202.22;;;26.67;47.69
18819;BME280;9537;45.594;9.294;2022-07-01T03:01:24;99204.44;;;26.65;47.94
18819;BME280;9537;45.594;9.294;2022-07-01T03:02:27;99204.22;;;26.61;48.36
18819;BME280;9537;45.594;9.294;2022-07-01T03:03:28;99206.66;;;26.58;48.29
18819;BME280;9537;45.594;9.294;2022-07-01T03:04:30;99210.47;;;26.57;48.72
18819;BME280;9537;45.594;9.294;2022-07-01T03:05:31;99218.59;;;26.57;48.62
18819;BME280;9537;45.594;9.294;2022-07-01T03:06:33;99211.34;;;26.52;49.05
18819;BME280;9537;45.594;9.294;2022-07-01T03:07:34;99214.59;;;26.49;48.89
18819;BME280;9537;45.594;9.294;2022-07-01T03:08:36;99217.56;;;26.52;48.73
18819;BME280;9537;45.594;9.294;2022-07-01T03:09:38;99214.84;;;26.52;48.87
18819;BME280;9537;45.594;9.294;2022-07-01T03:10:40;99214.91;;;26.47;49.38
18819;BME280;9537;45.594;9.294;2022-07-01T03:11:41;99216.84;;;26.42;49.95
18819;BME280;9537;45.594;9.294;2022-07-01T03:12:43;99217.06;;;26.45;49.86
18819;BME280;9537;45.594;9.294;2022-07-01T03:13:44;99216.06;;;26.41;50.70
18819;BME280;9537;45.594;9.294;2022-07-01T03:14:46;99217.94;;;26.41;50.38
18819;BME280;9537;45.594;9.294;2022-07-01T03:15:47;99221.22;;;26.38;51.09
18819;BME280;9537;45.594;9.294;2022-07-01T03:16:49;99222.38;;;26.32;51.57
18819;BME280;9537;45.594;9.294;2022-07-01T03:17:50;99223.47;;;26.31;52.01
18819;BME280;9537;45.594;9.294;2022-07-01T03:18:52;99228.59;;;26.32;51.95
18819;BME280;9537;45.594;9.294;2022-07-01T03:19:53;99224.84;;;26.28;51.49
18819;BME280;9537;45.594;9.294;2022-07-01T03:20:55;99228.13;;;26.25;51.59
18819;BME280;9537;45.594;9.294;2022-07-01T03:21:56;99231.69;;;26.20;52.26
18819;BME280;9537;45.594;9.294;2022-07-01T03:22:58;99228.47;;;26.18;52.68
18819;BME280;9537;45.594;9.294;2022-07-01T03:23:59;99240.69;;;26.16;52.40
18819;BME280;9537;45.594;9.294;2022-07-01T03:25:04;99242.56;;;26.15;52.42
18819;BME280;9537;45.594;9.294;2022-07-01T03:26:05;99239.63;;;26.12;52.06
18819;BME280;9537;45.594;9.294;2022-07-01T03:27:07;99249.13;;;26.09;52.49
18819;BME280;9537;45.594;9.294;2022-07-01T03:28:08;99241.28;;;26.08;52.15
18819;BME280;9537;45.594;9.294;2022-07-01T03:29:10;99239.16;;;26.04;52.45
18819;BME280;9537;45.594;9.294;2022-07-01T03:30:12;99240.75;;;26.05;52.47
18819;BME280;9537;45.594;9.294;2022-07-01T03:31:14;99243.44;;;26.11;52.05
18819;BME280;9537;45.594;9.294;2022-07-01T03:32:16;99246.94;;;26.11;52.26
18819;BME280;9537;45.594;9.294;2022-07-01T03:33:18;99245.38;;;26.05;52.26
18819;BME280;9537;45.594;9.294;2022-07-01T03:34:20;99258.09;;;26.04;52.17
18819;BME280;9537;45.594;9.294;2022-07-01T03:35:22;99251.13;;;25.98;52.05
18819;BME280;9537;45.594;9.294;2022-07-01T03:36:39;99258.72;;;25.96;52.12
18819;BME280;9537;45.594;9.294;2022-07-01T03:37:41;99255.47;;;25.94;52.05
18819;BME280;9537;45.594;9.294;2022-07-01T03:38:42;99250.09;;;25.89;52.56
18819;BME280;9537;45.594;9.294;2022-07-01T03:39:44;99255.00;;;25.87;52.77
18819;BME280;9537;45.594;9.294;2022-07-01T03:40:47;99265.25;;;25.90;52.85
18819;BME280;9537;45.594;9.294;2022-07-01T03:41:49;99259.78;;;25.95;52.82
18819;BME280;9537;45.594;9.294;2022-07-01T03:42:50;99263.59;;;25.94;52.85
18819;BME280;9537;45.594;9.294;2022-07-01T03:43:52;99272.00;;;25.93;52.78
18819;BME280;9537;45.594;9.294;2022-07-01T03:44:54;99268.19;;;25.94;53.20
18819;BME280;9537;45.594;9.294;2022-07-01T03:45:55;99269.31;;;25.93;53.35
18819;BME280;9537;45.594;9.294;2022-07-01T03:46:57;99270.66;;;25.90;53.17
18819;BME280;9537;45.594;9.294;2022-07-01T03:47:58;99269.03;;;25.89;52.63
18819;BME280;9537;45.594;9.294;2022-07-01T03:49:01;99272.84;;;25.88;52.00
18819;BME280;9537;45.594;9.294;2022-07-01T03:50:02;99278.25;;;25.88;51.62
18819;BME280;9537;45.594;9.294;2022-07-01T03:51:04;99272.63;;;25.84;51.84
18819;BME280;9537;45.594;9.294;2022-07-01T03:52:06;99269.59;;;25.86;51.94
18819;BME280;9537;45.594;9.294;2022-07-01T03:53:07;99278.25;;;25.88;51.75
18819;BME280;9537;45.594;9.294;2022-07-01T03:54:26;99278.50;;;25.92;51.68
18819;BME280;9537;45.594;9.294;2022-07-01T03:55:40;99278.25;;;25.88;51.52
18819;BME280;9537;45.594;9.294;2022-07-01T03:56:43;99279.34;;;25.87;51.81
18819;BME280;9537;45.594;9.294;2022-07-01T03:57:45;99274.22;;;25.86;51.95
18819;BME280;9537;45.594;9.294;2022-07-01T03:58:46;99283.13;;;25.86;52.26
18819;BME280;9537;45.594;9.294;2022-07-01T03:59:47;99276.34;;;25.89;51.88
18819;BME280;9537;45.594;9.294;2022-07-01T04:00:48;99276.59;;;25.92;51.53
18819;BME280;9537;45.594;9.294;2022-07-01T04:01:50;99282.53;;;25.94;51.42
18819;BME280;9537;45.594;9.294;2022-07-01T04:02:52;99276.88;;;25.91;51.26
18819;BME280;9537;45.594;9.294;2022-07-01T04:03:53;99277.72;;;25.86;51.65
18819;BME280;9537;45.594;9.294;2022-07-01T04:04:54;99285.03;;;25.86;51.56
18819;BME280;9537;45.594;9.294;2022-07-01T04:05:57;99288.03;;;25.79;51.04
18819;BME280;9537;45.594;9.294;2022-07-01T04:07:00;99292.13;;;25.76;51.42
18819;BME280;9537;45.594;9.294;2022-07-01T04:08:02;99286.69;;;25.81;52.06
18819;BME280;9537;45.594;9.294;2022-07-01T04:09:04;99284.78;;;25.82;52.58
18819;BME280;9537;45.594;9.294;2022-07-01T04:10:07;99283.19;;;25.76;53.03
18819;BME280;9537;45.594;9.294;2022-07-01T04:11:08;99289.94;;;25.78;52.96
18819;BME280;9537;45.594;9.294;2022-07-01T04:12:12;99282.09;;;25.77;53.14
18819;BME280;9537;45.594;9.294;2022-07-01T04:13:13;99285.63;;;25.72;53.57
18819;BME280;9537;45.594;9.294;2022-07-01T04:14:15;99283.78;;;25.68;53.28
18819;BME280;9537;45.594;9.294;2022-07-01T04:15:16;99281.63;;;25.70;53.64
18819;BME280;9537;45.594;9.294;2022-07-01T04:16:19;99287.53;;;25.72;53.52
18819;BME280;9537;45.594;9.294;2022-07-01T04:17:21;99283.47;;;25.74;52.91
18819;BME280;9537;45.594;9.294;2022-07-01T04:18:23;99276.16;;;25.75;53.40
18819;BME280;9537;45.594;9.294;2022-07-01T04:19:24;99291.31;;;25.76;52.96
18819;BME280;9537;45.594;9.294;2022-07-01T04:20:26;99285.91;;;25.76;53.34
18819;BME280;9537;45.594;9.294;2022-07-01T04:21:27;99286.41;;;25.78;53.24
18819;BME280;9537;45.594;9.294;2022-07-01T04:22:47;99281.28;;;25.76;52.98
18819;BME280;9537;45.594;9.294;2022-07-01T04:23:49;99279.13;;;25.78;52.81
18819;BME280;9537;45.594;9.294;2022-07-01T04:24:51;99279.41;;;25.77;52.92
18819;BME280;9537;45.594;9.294;2022-07-01T04:25:53;99282.09;;;25.77;52.83
18819;BME280;9537;45.594;9.294;2022-07-01T04:26:54;99277.22;;;25.79;53.09
18819;BME280;9537;45.594;9.294;2022-07-01T04:27:57;99276.69;;;25.77;53.35
18819;BME280;9537;45.594;9.294;2022-07-01T04:28:59;99278.84;;;25.75;53.40
18819;BME280;9537;45.594;9.294;2022-07-01T04:30:01;99274.25;;;25.75;53.52
18819;BME280;9537;45.594;9.294;2022-07-01T04:31:03;99280.50;;;25.76;53.38
18819;BME280;9537;45.594;9.294;2022-07-01T04:32:05;99273.97;;;25.77;53.40
18819;BME280;9537;45.594;9.294;2022-07-01T04:33:07;99279.94;;;25.79;53.44
18819;BME280;9537;45.594;9.294;2022-07-01T04:34:08;99284.53;;;25.78;53.39
18819;BME280;9537;45.594;9.294;2022-07-01T04:35:10;99275.09;;;25.76;53.40
18819;BME280;9537;45.594;9.294;2022-07-01T04:36:13;99283.13;;;25.81;53.08
18819;BME280;9537;45.594;9.294;2022-07-01T04:37:15;99285.59;;;25.82;53.63
18819;BME280;9537;45.594;9.294;2022-07-01T04:38:17;99289.91;;;25.83;53.78
18819;BME280;9537;45.594;9.294;2022-07-01T04:39:18;99284.50;;;25.83;54.07
18819;BME280;9537;45.594;9.294;2022-07-01T04:40:20;99275.59;;;25.83;53.74
18819;BME280;9537;45.594;9.294;2022-07-01T04:41:21;99276.13;;;25.85;53.94
18819;BME280;9537;45.594;9.294;2022-07-01T04:42:40;99281.00;;;25.83;53.86
18819;BME280;9537;45.594;9.294;2022-07-01T04:43:44;99277.22;;;25.84;53.88
18819;BME280;9537;45.594;9.294;2022-07-01T04:44:45;99280.16;;;25.88;54.11
18819;BME280;9537;45.594;9.294;2022-07-01T04:45:46;99277.22;;;25.84;54.11
18819;BME280;9537;45.594;9.294;2022-07-01T04:46:47;99276.66;;;25.82;54.65
18819;BME280;9537;45.594;9.294;2022-07-01T04:47:49;99271.25;;;25.82;54.62
18819;BME280;9537;45.594;9.294;2022-07-01T04:48:51;99274.78;;;25.82;54.29
18819;BME280;9537;45.594;9.294;2022-07-01T04:49:52;99279.63;;;25.86;54.43
18819;BME280;9537;45.594;9.294;2022-07-01T04:50:54;99273.94;;;25.87;54.48
18819;BME280;9537;45.594;9.294;2022-07-01T04:51:56;99277.22;;;25.84;54.46
18819;BME280;9537;45.594;9.294;2022-07-01T04:52:58;99276.66;;;25.82;54.69
18819;BME280;9537;45.594;9.294;2022-07-01T04:53:59;99273.94;;;25.82;54.86
18819;BME280;9537;45.594;9.294;2022-07-01T04:55:01;99270.44;;;25.81;55.15
18819;BME280;9537;45.594;9.294;2022-07-01T04:56:04;99280.50;;;25.76;55.26
18819;BME280;9537;45.594;9.294;2022-07-01T04:57:05;99283.69;;;25.78;55.40
18819;BME280;9537;45.594;9.294;2022-07-01T04:58:06;99268.81;;;25.80;55.08
18819;BME280;9537;45.594;9.294;2022-07-01T04:59:09;99278.03;;;25.79;54.96
18819;BME280;9537;45.594;9.294;2022-07-01T05:00:11;99273.97;;;25.77;55.07
18819;BME280;9537;45.594;9.294;2022-07-01T05:01:13;99279.63;;;25.86;55.26
18819;BME280;9537;45.594;9.294;2022-07-01T05:02:15;99280.97;;;25.88;55.21
18819;BME280;9537;45.594;9.294;2022-07-01T05:03:17;99286.38;;;25.88;55.17
18819;BME280;9537;45.594;9.294;2022-07-01T05:04:19;99277.22;;;25.84;55.83
18819;BME280;9537;45.594;9.294;2022-07-01T05:05:21;99287.22;;;25.83;55.85
18819;BME280;9537;45.594;9.294;2022-07-01T05:06:22;99278.81;;;25.80;56.13
18819;BME280;9537;45.594;9.294;2022-07-01T05:07:24;99285.91;;;25.76;56.59
18819;BME280;9537;45.594;9.294;2022-07-01T05:08:30;99289.09;;;25.78;56.58
18819;BME280;9537;45.594;9.294;2022-07-01T05:09:32;99296.16;;;25.79;56.33
18819;BME280;9537;45.594;9.294;2022-07-01T05:10:36;99304.53;;;25.77;55.91
18819;BME280;9537;45.594;9.294;2022-07-01T05:11:38;99294.00;;;25.76;54.89
18819;BME280;9537;45.594;9.294;2022-07-01T05:12:40;99300.22;;;25.76;54.93
18819;BME280;9537;45.594;9.294;2022-07-01T05:13:41;99297.22;;;25.78;54.86
18819;BME280;9537;45.594;9.294;2022-07-01T05:14:44;99298.56;;;25.80;54.79
18819;BME280;9537;45.594;9.294;2022-07-01T05:15:47;99300.19;;;25.81;54.70
18819;BME280;9537;45.594;9.294;2022-07-01T05:16:47;99306.41;;;25.82;55.44
18819;BME280;9537;45.594;9.294;2022-07-01T05:17:49;99298.03;;;25.83;55.54
18819;BME280;9537;45.594;9.294;2022-07-01T05:19:09;99308.03;;;25.83;55.88
18819;BME280;9537;45.594;9.294;2022-07-01T05:20:28;99304.78;;;25.86;55.78
18819;BME280;9537;45.594;9.294;2022-07-01T05:21:47;99302.06;;;25.86;55.00
18819;BME280;9537;45.594;9.294;2022-07-01T05:22:59;99295.28;;;25.89;55.45
18819;BME280;9537;45.594;9.294;2022-07-01T05:24:00;99301.50;;;25.89;55.28
18819;BME280;9537;45.594;9.294;2022-07-01T05:25:02;99303.13;;;25.90;55.37
18819;BME280;9537;45.594;9.294;2022-07-01T05:26:06;99304.75;;;25.91;55.42
18819;BME280;9537;45.594;9.294;2022-07-01T05:27:07;99299.91;;;25.88;56.11
18819;BME280;9537;45.594;9.294;2022-07-01T05:28:09;99309.06;;;25.92;55.80
18819;BME280;9537;45.594;9.294;2022-07-01T05:29:11;99305.28;;;25.93;56.17
18819;BME280;9537;45.594;9.294;2022-07-01T05:30:14;99300.09;;;25.97;56.18
18819;BME280;9537;45.594;9.294;2022-07-01T05:31:16;99293.59;;;25.98;55.63
18819;BME280;9537;45.594;9.294;2022-07-01T05:32:17;99302.25;;;26.00;55.67
18819;BME280;9537;45.594;9.294;2022-07-01T05:33:19;99299.25;;;26.01;56.02
18819;BME280;9537;45.594;9.294;2022-07-01T05:34:21;99299.72;;;26.09;55.93